Time;durP1;ratioP1;P1;durP2;ratioP2;P2;SDS_P1;SDS_P2;PMS_P1;PMS_P2;Temp;Humidity;BMP_temperature;BMP_pressure;BME280_temperature;BME280_humidity;BME280_pressure;Samples;Min_cycle;Max_cycle;Signal;HPM_P1;HPM_P2
2023/10/16 00:00:29;;;;;;;4.70;2.13;;;;;;;-145.63;47.54;39339.13;5045712;28;20113;-64
2023/10/16 00:03:02;;;;;;;6.00;2.25;;;;;;;-145.63;47.47;39386.06;5045528;28;20301;-64
2023/10/16 00:05:31;;;;;;;7.68;2.50;;;;;;;-145.63;47.62;39344.97;5045143;28;20025;-65
2023/10/16 00:08:03;;;;;;;6.85;2.40;;;;;;;-145.63;47.83;39358.66;5045327;28;20027;-64
2023/10/16 00:10:31;;;;;;;4.32;2.35;;;;;;;-145.63;47.64;39356.72;5045618;28;20036;-65
2023/10/16 00:12:56;;;;;;;7.07;2.83;;;;;;;-145.63;47.48;39360.63;5045304;28;20238;-65
2023/10/16 00:15:22;;;;;;;4.95;1.90;;;;;;;-145.63;48.40;39352.81;5045370;28;20564;-65
2023/10/16 00:17:49;;;;;;;5.90;2.53;;;;;;;-145.63;48.77;39352.81;5045540;28;20055;-65
2023/10/16 00:20:15;;;;;;;8.90;3.15;;;;;;;-145.63;48.33;39341.06;5045354;28;20040;-65
2023/10/16 00:22:43;;;;;;;5.70;2.40;;;;;;;-145.63;47.41;39329.34;5045301;28;20067;-64
2023/10/16 00:25:10;;;;;;;5.28;2.33;;;;;;;-145.63;47.59;39341.06;5044042;28;20229;-65
2023/10/16 00:27:40;;;;;;;6.32;2.33;;;;;;;-145.63;47.39;39362.59;5045229;28;20092;-65
2023/10/16 00:30:08;;;;;;;4.85;2.03;;;;;;;-145.63;47.45;39311.72;5045102;28;20029;-64
2023/10/16 00:32:37;;;;;;;5.35;2.00;;;;;;;-145.63;47.13;39358.66;5044222;28;20044;-64
2023/10/16 00:35:03;;;;;;;7.03;2.10;;;;;;;-145.63;46.94;39309.78;5043950;28;20337;-65
2023/10/16 00:37:32;;;;;;;6.80;2.05;;;;;;;-145.63;46.92;39321.50;5044981;28;20025;-65
2023/10/16 00:39:57;;;;;;;6.80;1.88;;;;;;;-145.63;46.27;39368.44;5045018;28;20025;-65
2023/10/16 00:42:23;;;;;;;4.97;1.88;;;;;;;-145.63;46.31;39366.50;5044900;28;20071;-65
2023/10/16 00:44:56;;;;;;;6.63;1.73;;;;;;;-145.63;46.36;39403.66;5045095;28;20081;-65
2023/10/16 00:47:22;;;;;;;3.55;1.80;;;;;;;-145.63;46.71;39341.06;5044880;28;20029;-65
2023/10/16 00:49:49;;;;;;;3.38;2.15;;;;;;;-145.63;47.35;39344.97;5044896;28;20064;-65
2023/10/16 00:52:18;;;;;;;6.57;2.28;;;;;;;-145.63;47.26;39344.97;5044758;28;20060;-64
2023/10/16 00:54:46;;;;;;;7.15;2.10;;;;;;;-145.63;47.43;39344.97;5044127;28;20037;-65
2023/10/16 00:57:13;;;;;;;5.38;2.05;;;;;;;-145.63;47.76;39325.41;5044487;28;20049;-65
2023/10/16 00:59:41;;;;;;;5.47;2.22;;;;;;;-145.63;47.59;39327.38;5044749;28;20052;-65
2023/10/16 01:02:15;;;;;;;4.50;2.00;;;;;;;-145.63;47.57;39317.59;5044276;28;20032;-65
2023/10/16 01:04:41;;;;;;;4.65;1.80;;;;;;;-145.63;47.74;39325.41;5044134;28;20021;-64
2023/10/16 01:07:08;;;;;;;6.03;2.08;;;;;;;-145.63;47.50;39354.75;5044425;28;20021;-64
2023/10/16 01:09:39;;;;;;;6.78;2.45;;;;;;;-145.63;47.64;39364.53;5044514;28;20033;-64
2023/10/16 01:12:10;;;;;;;2.65;1.70;;;;;;;-145.63;47.84;39344.97;5044337;28;20036;-63
2023/10/16 01:14:37;;;;;;;4.93;2.35;;;;;;;-145.63;47.65;39348.88;5044308;28;20067;-64
2023/10/16 01:17:08;;;;;;;4.38;2.28;;;;;;;-145.63;47.47;39366.50;5044163;28;20045;-63
2023/10/16 01:19:36;;;;;;;8.05;2.42;;;;;;;-145.63;47.51;39362.59;5044359;28;20033;-64
2023/10/16 01:22:02;;;;;;;7.95;2.45;;;;;;;-145.63;47.83;39362.59;5044000;28;20036;-64
2023/10/16 01:24:29;;;;;;;6.35;2.10;;;;;;;-145.63;48.17;39366.50;5044068;28;20088;-63
2023/10/16 01:27:14;;;;;;;4.85;2.40;;;;;;;-145.63;48.39;39372.34;5043893;28;20041;-63
2023/10/16 01:29:40;;;;;;;3.67;1.90;;;;;;;-145.63;48.62;39358.66;5044245;28;20197;-64
2023/10/16 01:32:07;;;;;;;6.82;2.33;;;;;;;-145.63;48.43;39358.66;5044020;28;20067;-63
2023/10/16 01:34:34;;;;;;;6.35;2.47;;;;;;;-145.63;48.80;39321.50;5044117;28;20092;-64
2023/10/16 01:37:08;;;;;;;3.63;1.88;;;;;;;-145.63;48.62;39343.03;5044058;28;20056;-64
2023/10/16 01:39:47;;;;;;;11.23;2.58;;;;;;;-145.63;48.52;39380.19;5043836;28;20025;-64
2023/10/16 01:42:15;;;;;;;4.90;2.40;;;;;;;-145.63;48.27;39196.34;5043383;28;20033;-65
2023/10/16 01:44:44;;;;;;;9.02;2.53;;;;;;;-145.63;48.40;39325.41;5043805;28;20025;-65
2023/10/16 01:47:15;;;;;;;9.13;2.38;;;;;;;-145.63;48.57;39391.91;5043283;28;20261;-64
2023/10/16 01:49:45;;;;;;;4.60;2.20;;;;;;;-145.63;48.13;39344.97;5023990;28;20326;-65
2023/10/16 01:52:14;;;;;;;10.63;2.50;;;;;;;-145.63;48.52;39352.81;5023684;28;20334;-64
2023/10/16 01:54:44;;;;;;;8.02;2.30;;;;;;;-145.63;48.66;39386.06;5024015;28;20351;-65
2023/10/16 01:57:10;;;;;;;5.95;2.53;;;;;;;-145.63;48.46;39344.97;5023577;28;20040;-65
2023/10/16 01:59:49;;;;;;;4.13;1.92;;;;;;;-145.63;48.75;39368.44;5023948;28;20236;-65
2023/10/16 02:02:17;;;;;;;7.68;2.50;;;;;;;-145.63;48.50;39366.50;5023522;28;20037;-65
2023/10/16 02:04:43;;;;;;;2.58;1.83;;;;;;;-145.63;48.54;39356.72;5032329;28;20067;-64
2023/10/16 02:07:09;;;;;;;7.88;2.28;;;;;;;-145.63;48.47;39329.34;5042569;28;20048;-65
2023/10/16 02:09:38;;;;;;;5.15;2.22;;;;;;;-145.63;48.67;39360.63;5043592;28;20049;-66
2023/10/16 02:12:10;;;;;;;7.68;2.70;;;;;;;-145.63;48.35;39341.06;5043394;28;20094;-64
2023/10/16 02:14:41;;;;;;;5.40;2.42;;;;;;;-145.63;47.97;39356.72;5043492;28;20075;-65
2023/10/16 02:17:19;;;;;;;4.30;2.22;;;;;;;-145.63;48.35;39311.72;5043474;28;20040;-64
2023/10/16 02:19:45;;;;;;;6.10;2.55;;;;;;;-145.63;48.14;39333.25;5043329;28;20092;-65
2023/10/16 02:22:11;;;;;;;6.78;2.13;;;;;;;-145.63;48.35;39317.59;5043167;28;20064;-64
2023/10/16 02:24:38;;;;;;;5.55;2.25;;;;;;;-145.63;48.12;39315.66;5043095;28;20083;-65
2023/10/16 02:27:09;;;;;;;5.75;2.33;;;;;;;-145.63;48.65;39337.16;5043277;28;20090;-64
2023/10/16 02:29:37;;;;;;;7.28;2.75;;;;;;;-145.63;48.63;39296.09;5043347;28;20025;-64
2023/10/16 02:32:04;;;;;;;5.05;2.08;;;;;;;-145.63;48.07;39341.06;5043174;28;20313;-64
2023/10/16 02:34:33;;;;;;;9.30;2.97;;;;;;;-145.63;48.16;39344.97;5043451;28;20309;-64
2023/10/16 02:37:06;;;;;;;5.53;2.20;;;;;;;-145.63;48.27;39335.19;5043039;28;20128;-64
2023/10/16 02:39:35;;;;;;;6.72;2.60;;;;;;;-145.63;48.46;39366.50;5043167;28;20035;-64
2023/10/16 02:42:06;;;;;;;6.05;2.50;;;;;;;-145.63;49.17;39339.13;5042933;28;20029;-64
2023/10/16 02:44:36;;;;;;;7.70;2.20;;;;;;;-145.63;49.33;39325.41;5043368;28;20025;-64
2023/10/16 02:47:05;;;;;;;6.97;2.33;;;;;;;-145.63;49.83;39352.81;5043037;28;20088;-64
2023/10/16 02:49:33;;;;;;;8.00;3.55;;;;;;;-145.63;49.13;39352.81;5042006;28;20029;-64
2023/10/16 02:51:59;;;;;;;6.20;2.78;;;;;;;-145.63;49.61;39419.31;5042564;28;20052;-65
2023/10/16 02:54:25;;;;;;;6.90;2.42;;;;;;;-145.63;49.36;39364.53;5042808;28;20044;-65
2023/10/16 02:56:59;;;;;;;7.30;2.65;;;;;;;-145.63;49.19;39344.97;5042875;28;20041;-65
2023/10/16 02:59:26;;;;;;;4.85;2.40;;;;;;;-145.63;48.98;39458.41;5043051;28;20029;-65
2023/10/16 03:01:55;;;;;;;6.63;2.70;;;;;;;-145.63;49.01;39370.41;5042769;28;20063;-65
2023/10/16 03:04:23;;;;;;;6.72;2.50;;;;;;;-145.63;49.13;39378.22;5042293;28;20128;-65
2023/10/16 03:06:53;;;;;;;7.70;2.63;;;;;;;-145.63;49.69;39348.88;5042716;28;20025;-64
2023/10/16 03:09:31;;;;;;;6.95;2.47;;;;;;;-145.63;48.81;39325.41;5042736;28;20029;-65
2023/10/16 03:12:08;;;;;;;6.80;2.60;;;;;;;-145.63;49.04;39348.88;5042816;28;20324;-64
2023/10/16 03:14:49;;;;;;;7.20;2.22;;;;;;;-145.63;48.52;39352.81;5042655;28;20029;-64
2023/10/16 03:19:57;;;;;;;9.82;2.55;;;;;;;-145.63;48.04;39329.34;5045971;28;20246;-64
2023/10/16 03:22:23;;;;;;;6.80;2.58;;;;;;;-145.63;48.41;39370.41;5046615;28;20025;-64
2023/10/16 03:24:50;;;;;;;6.72;2.53;;;;;;;-145.63;49.19;39360.63;5046439;28;20029;-64
2023/10/16 03:27:28;;;;;;;4.93;2.00;;;;;;;-145.63;49.42;39388.00;5046128;28;20294;-64
2023/10/16 03:29:58;;;;;;;8.82;2.70;;;;;;;-145.63;48.89;39376.28;5045940;28;20036;-63
2023/10/16 03:32:24;;;;;;;6.07;2.22;;;;;;;-145.63;48.93;39341.06;5046302;28;20096;-64
2023/10/16 03:34:51;;;;;;;8.75;2.47;;;;;;;-145.63;48.87;39362.59;5045717;28;20036;-64
2023/10/16 03:37:20;;;;;;;6.82;2.70;;;;;;;-145.63;49.00;39354.75;5046020;28;20078;-64
2023/10/16 03:39:56;;;;;;;9.82;3.20;;;;;;;-145.63;49.45;39360.63;5046024;28;20049;-64
2023/10/16 03:42:23;;;;;;;6.43;2.78;;;;;;;-145.63;48.79;39372.34;5046210;28;20025;-64
2023/10/16 03:44:49;;;;;;;6.55;2.40;;;;;;;-145.63;48.85;39380.19;5046027;28;20217;-64
2023/10/16 03:47:15;;;;;;;6.03;2.60;;;;;;;-145.63;48.79;39358.66;5045908;28;20037;-64
2023/10/16 03:49:41;;;;;;;6.28;2.67;;;;;;;-145.63;49.06;39382.13;5045865;28;20087;-64
2023/10/16 03:52:08;;;;;;;5.30;2.80;;;;;;;-145.63;48.99;39360.63;5045394;28;20282;-64
2023/10/16 03:54:35;;;;;;;9.40;2.75;;;;;;;-145.63;49.11;39368.44;5045783;28;20021;-64
2023/10/16 03:57:09;;;;;;;7.68;2.85;;;;;;;-145.63;48.90;39362.59;5045956;28;20026;-64
2023/10/16 03:59:37;;;;;;;7.72;3.38;;;;;;;-145.63;49.06;39380.19;5045749;28;20029;-64
2023/10/16 04:02:04;;;;;;;6.28;2.58;;;;;;;-145.63;49.27;39388.00;5044957;28;20088;-65
2023/10/16 04:04:30;;;;;;;8.23;2.83;;;;;;;-145.63;49.72;39382.13;5045408;28;20050;-66
2023/10/16 04:06:56;;;;;;;6.30;2.30;;;;;;;-145.63;48.96;39372.34;5045483;28;20336;-66
2023/10/16 04:09:29;;;;;;;9.02;3.05;;;;;;;-145.63;49.56;39339.13;5045261;28;20401;-65
2023/10/16 04:11:56;;;;;;;8.80;2.65;;;;;;;-145.63;49.25;39337.16;5044795;28;20036;-65
2023/10/16 04:14:44;;;;;;;7.97;2.47;;;;;;;-145.63;49.32;39378.22;5045230;28;20041;-68
2023/10/16 04:17:11;;;;;;;7.93;2.50;;;;;;;-145.63;49.74;39321.50;5044388;28;20436;-68
2023/10/16 04:22:24;;;;;;;5.22;2.55;;;;;;;-145.63;48.97;39370.41;5036364;28;20092;-66
2023/10/16 04:24:59;;;;;;;7.65;3.50;;;;;;;-145.63;48.53;39335.19;5044078;28;20029;-66
2023/10/16 04:27:34;;;;;;;7.78;2.95;;;;;;;-145.63;48.79;39305.88;5044413;28;20025;-66
2023/10/16 04:30:32;;;;;;;8.07;2.70;;;;;;;-145.63;49.00;39352.81;5042927;28;20076;-67
2023/10/16 04:43:49;;;;;;;6.53;2.58;;;;;;;-145.63;48.69;39368.44;5044752;28;20040;-67
2023/10/16 04:46:24;;;;;;;5.50;2.65;;;;;;;-145.63;48.69;39352.81;5044593;28;20033;-66
2023/10/16 04:48:54;;;;;;;11.23;2.78;;;;;;;-145.63;49.02;39356.72;5044612;28;20111;-65
2023/10/16 04:51:22;;;;;;;5.70;2.40;;;;;;;-145.63;48.96;39374.31;5044047;28;20413;-66
2023/10/16 04:53:58;;;;;;;10.98;2.30;;;;;;;-145.63;48.43;39335.19;5043893;28;20049;-67
2023/10/16 05:07:53;;;;;;;7.65;2.80;;;;;;;-145.63;48.90;39343.03;5021805;28;20104;-67
2023/10/16 05:13:55;;;;;;;8.18;2.72;;;;;;;-145.63;49.10;39370.41;5041847;28;20030;-67
2023/10/16 05:16:28;;;;;;;7.35;2.22;;;;;;;-145.63;48.27;39382.13;5039960;28;20041;-65
2023/10/16 05:18:46;;;;;;;6.63;2.75;;;;;;;-145.63;48.57;39372.34;5043128;28;20049;-68
2023/10/16 05:21:19;;;;;;;6.63;2.53;;;;;;;-145.63;48.85;39374.31;5043012;28;20054;-66
2023/10/16 06:15:47;;;;;;;7.78;3.03;;;;;;;-145.63;48.78;39333.25;5040768;28;20034;-66
2023/10/16 06:18:12;;;;;;;10.10;3.22;;;;;;;-145.63;49.09;39344.97;5041704;28;20051;-66
2023/10/16 06:20:43;;;;;;;8.20;3.03;;;;;;;-145.63;48.50;39378.22;5042306;28;20029;-66
2023/10/16 06:23:10;;;;;;;11.80;3.58;;;;;;;-145.63;48.62;39389.97;5042091;28;20135;-67
2023/10/16 06:25:37;;;;;;;5.63;2.70;;;;;;;-145.63;49.35;39325.41;5040638;28;20029;-68
2023/10/16 06:28:11;;;;;;;4.90;2.83;;;;;;;-145.63;49.58;39344.97;5042461;28;20017;-66
2023/10/16 06:30:38;;;;;;;6.35;3.78;;;;;;;-145.63;49.00;39511.22;5041965;28;20221;-67
2023/10/16 06:33:05;;;;;;;5.25;3.08;;;;;;;-145.63;48.83;39301.94;5040109;28;20052;-68
2023/10/16 06:35:31;;;;;;;9.10;4.13;;;;;;;-145.63;49.11;39384.09;5041615;28;20025;-65
2023/10/16 06:38:00;;;;;;;9.05;3.30;;;;;;;-145.63;49.08;39341.06;5042185;28;20088;-66
2023/10/16 06:40:27;;;;;;;12.30;3.83;;;;;;;-145.63;49.74;39380.19;5042318;28;20036;-66
2023/10/16 06:43:13;;;;;;;7.50;2.85;;;;;;;-145.63;49.23;39348.88;5042441;28;20033;-68
2023/10/16 06:45:41;;;;;;;10.70;4.00;;;;;;;-145.63;49.08;39356.72;5039710;28;20021;-65
2023/10/16 06:48:08;;;;;;;8.95;3.22;;;;;;;-145.63;48.75;39360.63;5042317;28;20037;-67
2023/10/16 06:50:41;;;;;;;7.40;3.03;;;;;;;-145.63;48.68;39364.53;5042210;28;20021;-65
2023/10/16 06:53:07;;;;;;;7.65;3.25;;;;;;;-145.63;48.81;39380.19;5042069;28;20056;-66
2023/10/16 06:55:33;;;;;;;6.75;3.53;;;;;;;-145.63;48.56;39384.09;5045724;28;20025;-67
2023/10/16 06:57:59;;;;;;;9.27;2.83;;;;;;;-145.63;48.69;39360.63;5045595;28;20364;-67
2023/10/16 07:00:31;;;;;;;10.75;3.40;;;;;;;-145.63;48.78;39360.63;5044653;28;20020;-67
2023/10/16 07:03:01;;;;;;;9.68;2.97;;;;;;;-145.63;48.65;39354.75;5043368;28;20024;-66
2023/10/16 07:05:44;;;;;;;7.28;3.08;;;;;;;-145.63;48.82;39374.31;5045447;28;20021;-66
2023/10/16 07:08:18;;;;;;;10.38;3.53;;;;;;;-145.63;49.28;38441.53;5045143;28;20037;-66
2023/10/16 07:10:51;;;;;;;5.47;2.95;;;;;;;-145.63;49.89;39374.31;5044415;28;20075;-65
2023/10/16 07:13:26;;;;;;;6.63;3.33;;;;;;;-145.63;49.67;39370.41;5045770;28;20033;-66
2023/10/16 07:15:54;;;;;;;6.40;3.03;;;;;;;-145.63;50.46;39061.41;5046017;28;20021;-66
2023/10/16 07:18:24;;;;;;;8.27;3.40;;;;;;;-145.63;50.80;39352.81;5044427;28;20063;-67
2023/10/16 07:23:34;;;;;;;9.10;3.90;;;;;;;-145.63;51.33;39384.09;5045761;28;20084;-66
2023/10/16 07:26:02;;;;;;;9.48;3.53;;;;;;;-145.63;51.35;39382.13;5043119;28;20033;-65
2023/10/16 07:28:29;;;;;;;11.73;3.72;;;;;;;-145.63;51.81;39378.22;5045712;28;20243;-65
2023/10/16 07:31:05;;;;;;;10.25;3.65;;;;;;;-145.63;51.56;39364.53;5045745;28;20029;-66
2023/10/16 07:33:32;;;;;;;9.73;3.35;;;;;;;-145.63;52.20;39386.06;5045867;28;20052;-64
2023/10/16 07:35:59;;;;;;;8.07;3.70;;;;;;;-145.63;52.06;39395.84;5044121;28;20053;-65
2023/10/16 07:38:27;;;;;;;11.45;3.88;;;;;;;-145.63;52.59;39358.66;5046041;28;20325;-65
2023/10/16 07:40:58;;;;;;;9.63;3.80;;;;;;;-145.63;52.79;39376.28;5028280;28;20048;-65
2023/10/16 07:43:27;;;;;;;12.68;3.58;;;;;;;-145.63;53.73;39384.09;5045507;28;20214;-66
2023/10/16 07:48:50;;;;;;;6.80;3.30;;;;;;;-145.63;54.06;39382.13;5044423;28;20037;-66
2023/10/16 07:51:20;;;;;;;8.85;3.90;;;;;;;-145.63;53.94;39370.41;5045379;28;20026;-65
2023/10/16 07:53:49;;;;;;;7.50;3.22;;;;;;;-145.63;53.71;39356.72;5045589;28;20049;-65
2023/10/16 07:56:25;;;;;;;7.78;3.55;;;;;;;-145.63;53.13;39364.53;5045469;28;20060;-65
2023/10/16 07:59:06;;;;;;;10.52;4.03;;;;;;;-145.63;54.08;39356.72;5045620;28;20049;-65
2023/10/16 08:01:42;;;;;;;8.30;3.72;;;;;;;-145.63;54.11;39417.34;5045408;28;20056;-66
2023/10/16 08:04:51;;;;;;;12.90;4.28;;;;;;;-145.63;54.32;39429.06;5043576;28;20069;-66
2023/10/16 08:07:04;;;;;;;10.05;3.58;;;;;;;-145.63;53.80;39397.78;5037856;28;20065;-66
2023/10/16 08:12:34;;;;;;;8.40;3.95;;;;;;;-145.63;53.88;39348.88;5044663;28;20053;-65
2023/10/16 08:14:54;;;;;;;8.63;4.10;;;;;;;-145.63;54.58;39370.41;5043751;28;20033;-65
2023/10/16 08:17:26;;;;;;;11.65;4.10;;;;;;;-145.63;54.63;39391.91;5041551;28;20037;-65
2023/10/16 08:19:52;;;;;;;10.63;4.40;;;;;;;-145.63;54.98;39391.91;5042962;28;20033;-65
2023/10/16 08:22:18;;;;;;;8.57;4.00;;;;;;;-145.63;55.01;39319.56;5043584;28;20029;-65
2023/10/16 08:24:59;;;;;;;11.65;4.60;;;;;;;-145.63;54.47;39419.31;5044126;28;20100;-65
2023/10/16 08:33:06;;;;;;;8.88;3.88;;;;;;;-145.63;55.01;39352.81;5037530;28;20037;-66
2023/10/16 08:35:38;;;;;;;10.65;4.45;;;;;;;-145.63;54.99;39386.06;5044963;28;20029;-64
2023/10/16 08:38:15;;;;;;;10.68;4.20;;;;;;;-145.63;55.28;39407.56;5044632;28;20032;-65
2023/10/16 08:40:44;;;;;;;9.52;4.05;;;;;;;-145.63;55.34;39329.34;5044822;28;20025;-65
2023/10/16 08:43:16;;;;;;;9.35;4.10;;;;;;;-145.63;55.61;39382.13;5044482;28;20285;-66
2023/10/16 08:45:48;;;;;;;9.70;4.35;;;;;;;-145.63;55.45;39397.78;5044423;28;20036;-66
2023/10/16 08:48:17;;;;;;;8.30;4.20;;;;;;;-145.63;55.71;39454.50;5043936;28;20038;-65
2023/10/16 08:50:52;;;;;;;10.57;4.50;;;;;;;-145.63;56.13;39311.72;5043745;28;20026;-66
2023/10/16 08:53:30;;;;;;;11.70;4.63;;;;;;;-145.63;56.17;39360.63;5044418;28;20033;-66
2023/10/16 08:55:58;;;;;;;10.80;5.35;;;;;;;-145.63;56.40;39391.91;5043800;28;20179;-65
2023/10/16 08:58:24;;;;;;;10.18;5.28;;;;;;;-145.63;56.57;39370.41;5044418;28;20040;-65
2023/10/16 09:00:53;;;;;;;8.13;4.60;;;;;;;-145.63;55.97;39380.19;5044073;28;20037;-65
2023/10/16 09:03:20;;;;;;;7.40;4.70;;;;;;;-145.63;55.80;39395.84;5044026;28;20025;-65
2023/10/16 09:05:46;;;;;;;10.93;5.13;;;;;;;-145.63;56.13;39384.09;5043252;28;20041;-65
2023/10/16 09:08:15;;;;;;;10.32;4.90;;;;;;;-145.63;56.42;39391.91;5043713;28;20210;-66
2023/10/16 09:10:41;;;;;;;11.02;5.15;;;;;;;-145.63;55.51;39372.34;5043802;28;20057;-65
2023/10/16 09:13:17;;;;;;;8.68;4.60;;;;;;;-145.63;56.20;39380.19;5042850;28;20040;-66
2023/10/16 09:15:46;;;;;;;10.70;4.88;;;;;;;-145.63;56.20;39378.22;5043369;28;20092;-66
2023/10/16 09:18:15;;;;;;;10.60;4.82;;;;;;;-145.63;56.58;39354.75;5043533;28;20049;-65
2023/10/16 09:20:42;;;;;;;9.50;5.60;;;;;;;-145.63;56.16;39389.97;5044013;28;20018;-67
2023/10/16 09:23:13;;;;;;;8.23;5.43;;;;;;;-145.63;56.26;38586.22;5043465;28;20029;-66
2023/10/16 09:25:46;;;;;;;12.07;5.78;;;;;;;-145.63;56.49;39397.78;5043678;28;20029;-66
2023/10/16 09:28:21;;;;;;;9.88;5.60;;;;;;;-145.63;56.70;39366.50;5043551;28;20387;-66
2023/10/16 09:30:49;;;;;;;9.90;5.22;;;;;;;-145.63;56.63;39393.88;5043107;28;20309;-66
2023/10/16 09:33:15;;;;;;;10.95;5.65;;;;;;;-145.63;56.36;39388.00;5032996;28;20041;-67
2023/10/16 09:35:44;;;;;;;6.97;5.22;;;;;;;-145.63;56.54;39378.22;5023540;28;20037;-67
2023/10/16 09:38:18;;;;;;;8.82;5.47;;;;;;;-145.63;56.43;39194.38;5039853;28;20036;-66
2023/10/16 09:43:56;;;;;;;5.35;4.03;;;;;;;-145.63;55.92;39433.00;5043235;28;20033;-66
2023/10/16 09:49:15;;;;;;;8.52;4.25;;;;;;;-145.63;57.02;39393.88;5038588;28;20037;-65
2023/10/16 09:51:44;;;;;;;7.60;4.53;;;;;;;-145.63;56.66;39399.75;5042682;28;20021;-67
2023/10/16 09:54:11;;;;;;;9.45;4.65;;;;;;;-145.63;56.49;39391.91;5043293;28;20044;-66
2023/10/16 09:56:39;;;;;;;8.15;4.40;;;;;;;-145.63;56.62;39380.19;5043625;28;20116;-66
2023/10/16 09:59:12;;;;;;;6.25;4.88;;;;;;;-145.63;56.72;39384.09;5043559;28;20100;-66
2023/10/16 10:01:42;;;;;;;;;;;;;;;-145.63;56.23;39382.13;5043701;28;20033;-66
2023/10/16 10:04:11;;;;;;;9.10;4.63;;;;;;;-145.63;57.02;39391.91;5042855;28;19909;-66
2023/10/16 10:06:42;;;;;;;10.20;5.10;;;;;;;-145.63;56.80;39450.59;5043079;28;20056;-67
2023/10/16 10:12:14;;;;;;;6.63;4.80;;;;;;;-145.63;56.59;39389.97;5033968;28;20315;-67
2023/10/16 10:15:12;;;;;;;9.55;5.28;;;;;;;-145.63;57.07;39255.00;5043111;28;20037;-67
2023/10/16 10:17:46;;;;;;;6.88;5.10;;;;;;;-145.63;56.72;39411.47;5043077;28;20357;-67
2023/10/16 10:20:23;;;;;;;6.68;4.93;;;;;;;-145.63;56.54;39419.31;5042823;28;20041;-66
2023/10/16 10:22:53;;;;;;;10.63;5.03;;;;;;;-145.63;56.39;39389.97;5042836;28;20084;-67
2023/10/16 10:25:29;;;;;;;6.45;4.60;;;;;;;-145.63;56.85;39440.81;5043033;28;20029;-67
2023/10/16 10:28:09;;;;;;;25.95;16.00;;;;;;;-145.63;56.36;39397.78;5041932;28;20079;-66
2023/10/16 10:30:40;;;;;;;7.50;5.22;;;;;;;-145.63;56.14;39380.19;5041965;28;20103;-67
2023/10/16 10:33:06;;;;;;;9.63;5.35;;;;;;;-145.63;56.61;39434.94;5042390;28;20179;-66
2023/10/16 10:35:43;;;;;;;5.85;4.82;;;;;;;-145.63;56.97;39380.19;5043009;28;20037;-66
2023/10/16 10:38:21;;;;;;;6.32;4.38;;;;;;;-145.63;56.05;39407.56;5022798;28;20026;-66
2023/10/16 10:41:06;;;;;;;7.43;4.60;;;;;;;-145.63;56.88;39419.31;5025277;28;20199;-67
2023/10/16 10:43:48;;;;;;;7.32;4.88;;;;;;;-145.63;56.28;39378.22;5042813;28;20115;-66
2023/10/16 10:46:20;;;;;;;7.63;4.53;;;;;;;-145.63;56.05;39397.78;5042719;28;20033;-66
2023/10/16 10:48:46;;;;;;;9.93;7.13;;;;;;;-145.63;56.65;39380.19;5042885;28;20262;-67
2023/10/16 10:51:15;;;;;;;5.95;4.50;;;;;;;-145.63;56.42;39384.09;5042669;28;20029;-66
2023/10/16 10:53:59;;;;;;;7.05;4.68;;;;;;;-145.63;56.13;39380.19;5043027;28;20072;-67
2023/10/16 10:56:41;;;;;;;6.32;4.43;;;;;;;-145.63;55.76;39388.00;5027648;28;20029;-67
2023/10/16 10:59:10;;;;;;;7.72;5.45;;;;;;;-145.63;56.04;39403.66;5042645;28;20225;-66
2023/10/16 11:01:50;;;;;;;9.38;5.95;;;;;;;-145.63;56.24;39348.88;5042707;28;20025;-68
2023/10/16 11:04:15;;;;;;;7.18;4.63;;;;;;;-145.63;55.97;39405.59;5042390;28;20060;-67
2023/10/16 11:06:45;;;;;;;7.82;4.90;;;;;;;-145.63;55.79;39372.34;5042625;28;20037;-67
2023/10/16 11:09:12;;;;;;;5.93;4.63;;;;;;;-145.63;56.05;39372.34;5041721;28;20017;-67
2023/10/16 11:11:39;;;;;;;6.35;4.65;;;;;;;-145.63;56.32;39290.22;5041801;28;20233;-66
2023/10/16 11:14:07;;;;;;;7.50;4.95;;;;;;;-145.63;56.20;39388.00;5042152;28;20021;-68
2023/10/16 11:16:41;;;;;;;8.52;5.20;;;;;;;-145.63;56.15;39298.03;5042456;28;20036;-66
2023/10/16 11:19:08;;;;;;;7.60;5.38;;;;;;;-145.63;55.72;39360.63;5040596;28;20084;-67
2023/10/16 11:21:43;;;;;;;10.07;5.97;;;;;;;-145.63;56.48;39378.22;5040465;28;20084;-66
2023/10/16 11:24:11;;;;;;;9.45;5.55;;;;;;;-145.63;56.88;39376.28;5041749;28;20029;-66
2023/10/16 11:26:38;;;;;;;7.80;5.85;;;;;;;-145.63;56.80;39399.75;5040647;28;20021;-68
2023/10/16 11:29:04;;;;;;;10.02;6.82;;;;;;;-145.63;56.65;39391.91;5042287;28;20214;-67
2023/10/16 11:31:30;;;;;;;8.13;6.00;;;;;;;-145.63;56.43;39388.00;5041767;28;20049;-66
2023/10/16 11:34:01;;;;;;;12.80;5.70;;;;;;;-145.63;56.82;39415.38;5042051;28;20092;-66
2023/10/16 11:36:28;;;;;;;9.93;5.90;;;;;;;-145.63;56.70;39378.22;5042382;28;20053;-66
2023/10/16 11:39:02;;;;;;;7.97;5.55;;;;;;;-145.63;56.88;39348.88;5041117;28;20488;-67
2023/10/16 11:41:30;;;;;;;8.38;5.85;;;;;;;-145.63;56.99;39286.31;5045150;28;20045;-67
2023/10/16 11:43:56;;;;;;;7.05;5.50;;;;;;;-145.63;56.91;39389.97;5045565;28;20029;-66
2023/10/16 11:46:38;;;;;;;8.00;5.40;;;;;;;-145.63;56.95;39380.19;5044934;28;20063;-66
2023/10/16 11:51:49;;;;;;;6.93;5.03;;;;;;;-145.63;56.53;39380.19;5037228;28;20025;-67
2023/10/16 11:54:23;;;;;;;9.10;5.50;;;;;;;-145.63;56.45;39393.88;5045520;28;20033;-68
2023/10/16 11:56:53;;;;;;;6.15;4.82;;;;;;;-145.63;56.22;39405.59;5045859;28;20025;-67
2023/10/16 11:59:25;;;;;;;8.68;5.65;;;;;;;-145.63;56.27;39368.44;5045347;28;20075;-67
2023/10/16 12:01:59;;;;;;;7.53;5.55;;;;;;;-145.63;56.35;39348.88;5045632;28;20060;-66
2023/10/16 12:04:26;;;;;;;7.53;4.72;;;;;;;-145.63;55.88;39401.69;5045188;28;20068;-67
2023/10/16 12:06:53;;;;;;;8.13;5.15;;;;;;;-145.63;56.38;39382.13;5045415;28;20026;-66
2023/10/16 12:09:19;;;;;;;7.15;4.82;;;;;;;-145.63;56.26;39395.84;5045278;28;20033;-67
2023/10/16 12:11:49;;;;;;;6.15;4.88;;;;;;;-145.63;56.34;39372.34;5045290;28;20022;-67
2023/10/16 12:14:18;;;;;;;6.85;5.22;;;;;;;-145.63;56.38;39368.44;5044954;28;20033;-66
2023/10/16 12:16:46;;;;;;;6.47;4.90;;;;;;;-145.63;55.65;39399.75;5033661;28;20049;-66
2023/10/16 12:19:16;;;;;;;8.95;5.22;;;;;;;-145.63;55.83;39442.78;5024075;28;20206;-67
2023/10/16 12:21:43;;;;;;;9.07;5.47;;;;;;;-145.63;55.94;39389.97;5032395;28;20043;-66
2023/10/16 12:24:10;;;;;;;8.90;5.57;;;;;;;-145.63;56.46;39376.28;5043748;28;20044;-66
2023/10/16 12:26:40;;;;;;;7.90;5.32;;;;;;;-145.63;56.59;39382.13;5044051;28;20085;-66
2023/10/16 12:29:08;;;;;;;6.60;5.10;;;;;;;-145.63;56.76;39395.84;5043968;28;20360;-67
2023/10/16 12:31:40;;;;;;;7.93;5.20;;;;;;;-145.63;56.97;39384.09;5034647;28;20301;-66
2023/10/16 12:34:11;;;;;;;9.10;5.10;;;;;;;-145.63;56.68;39389.97;5037982;28;20037;-66
2023/10/16 12:36:43;;;;;;;8.67;5.30;;;;;;;-145.63;56.30;39368.44;5050894;28;20063;-67
2023/10/16 12:39:29;;;;;;;8.38;5.07;;;;;;;-145.63;56.91;39258.94;5048671;28;20441;-66
2023/10/16 12:41:57;;;;;;;8.70;5.32;;;;;;;-145.63;56.75;39391.91;5042351;28;20042;-65
2023/10/16 12:44:26;;;;;;;7.55;5.60;;;;;;;-145.63;56.82;39395.84;5048038;28;20021;-66
2023/10/16 12:46:56;;;;;;;9.93;5.20;;;;;;;-145.63;56.39;39368.44;5044019;28;20040;-67
2023/10/16 12:49:23;;;;;;;8.25;5.05;;;;;;;-145.63;56.81;39384.09;5043695;28;20100;-67
2023/10/16 12:51:53;;;;;;;10.93;5.10;;;;;;;-145.63;56.55;39384.09;5038035;28;20375;-66
2023/10/16 12:54:24;;;;;;;7.28;4.75;;;;;;;-145.63;56.31;39393.88;5041777;28;20077;-66
2023/10/16 12:56:52;;;;;;;8.80;4.85;;;;;;;-145.63;56.73;39401.69;5043244;28;20214;-66
2023/10/16 12:59:19;;;;;;;7.50;5.75;;;;;;;-145.63;56.93;39382.13;5044027;28;20036;-66
2023/10/16 13:01:49;;;;;;;8.82;5.18;;;;;;;-145.63;57.30;39388.00;5044141;28;20033;-66
2023/10/16 13:04:18;;;;;;;8.98;5.47;;;;;;;-145.63;56.36;39388.00;5043767;28;20037;-66
2023/10/16 13:06:44;;;;;;;9.00;5.57;;;;;;;-145.63;56.65;39382.13;5036697;28;20041;-66
2023/10/16 13:09:17;;;;;;;7.35;5.03;;;;;;;-145.63;56.32;39405.59;5049429;28;20037;-66
2023/10/16 13:11:45;;;;;;;7.57;4.85;;;;;;;-145.63;56.32;39372.34;5040901;28;20034;-68
2023/10/16 13:14:14;;;;;;;12.50;6.82;;;;;;;-145.63;56.68;39382.13;5031373;28;20309;-66
2023/10/16 13:16:40;;;;;;;9.73;5.63;;;;;;;-145.63;56.78;39380.19;5041917;28;20083;-66
2023/10/16 13:19:09;;;;;;;9.07;5.75;;;;;;;-145.63;56.78;39364.53;5043005;28;20033;-65